sensor_id;sensor_type;location;lat;lon;timestamp;pressure;altitude;pressure_sealevel;temperature;humidity
9738;BME280;4908;47.446;13.900;2023-06-22T00:00:48;93394.94;;;15.93;100.00
9738;BME280;4908;47.446;13.900;2023-06-22T00:03:16;93389.94;;;15.92;100.00
9738;BME280;4908;47.446;13.900;2023-06-22T00:05:43;93387.66;;;15.90;100.00
9738;BME280;4908;47.446;13.900;2023-06-22T00:08:10;93378.28;;;16.02;100.00
9738;BME280;4908;47.446;13.900;2023-06-22T00:10:37;93379.09;;;15.99;100.00
9738;BME280;4908;47.446;13.900;2023-06-22T00:13:06;93376.81;;;15.94;100.00
9738;BME280;4908;47.446;13.900;2023-06-22T00:15:33;93378.50;;;15.74;100.00
9738;BME280;4908;47.446;13.900;2023-06-22T00:18:00;93367.31;;;15.75;100.00
9738;BME280;4908;47.446;13.900;2023-06-22T00:20:28;93367.69;;;15.74;100.00
9738;BME280;4908;47.446;13.900;2023-06-22T00:22:55;93367.69;;;15.74;100.00
9738;BME280;4908;47.446;13.900;2023-06-22T00:25:22;93363.56;;;15.66;100.00
9738;BME280;4908;47.446;13.900;2023-06-22T00:27:49;93358.88;;;15.70;100.00
9738;BME280;4908;47.446;13.900;2023-06-22T00:30:18;93356.63;;;15.61;100.00
9738;BME280;4908;47.446;13.900;2023-06-22T00:32:45;93351.56;;;15.67;100.00
9738;BME280;4908;47.446;13.900;2023-06-22T00:35:12;93352.38;;;15.64;100.00
9738;BME280;4908;47.446;13.900;2023-06-22T00:37:39;93348.97;;;15.56;100.00
9738;BME280;4908;47.446;13.900;2023-06-22T00:40:09;93347.03;;;15.57;100.00
9738;BME280;4908;47.446;13.900;2023-06-22T00:42:37;93336.63;;;15.55;100.00
9738;BME280;4908;47.446;13.900;2023-06-22T00:45:05;93328.50;;;15.59;100.00
9738;BME280;4908;47.446;13.900;2023-06-22T00:47:34;93323.88;;;15.59;100.00
9738;BME280;4908;47.446;13.900;2023-06-22T00:50:01;93314.63;;;15.57;100.00
9738;BME280;4908;47.446;13.900;2023-06-22T00:52:29;93313.88;;;15.56;100.00
9738;BME280;4908;47.446;13.900;2023-06-22T00:54:59;93307.34;;;15.54;100.00
9738;BME280;4908;47.446;13.900;2023-06-22T00:57:28;93304.63;;;15.54;100.00
9738;BME280;4908;47.446;13.900;2023-06-22T00:59:55;93308.09;;;15.54;100.00
9738;BME280;4908;47.446;13.900;2023-06-22T01:02:22;93298.47;;;15.53;100.00
9738;BME280;4908;47.446;13.900;2023-06-22T01:04:50;93297.69;;;15.53;100.00
9738;BME280;4908;47.446;13.900;2023-06-22T01:07:21;93290.06;;;15.44;100.00
9738;BME280;4908;47.446;13.900;2023-06-22T01:09:59;93296.25;;;15.38;100.00
9738;BME280;4908;47.446;13.900;2023-06-22T01:12:32;93285.53;;;15.23;100.00
9738;BME280;4908;47.446;13.900;2023-06-22T01:15:07;93278.16;;;15.35;100.00
9738;BME280;4908;47.446;13.900;2023-06-22T01:17:35;93273.34;;;15.08;100.00
9738;BME280;4908;47.446;13.900;2023-06-22T01:20:06;93274.09;;;15.09;100.00
9738;BME280;4908;47.446;13.900;2023-06-22T01:23:05;93278.69;;;15.12;100.00
9738;BME280;4908;47.446;13.900;2023-06-22T01:25:37;93266.03;;;15.05;100.00
9738;BME280;4908;47.446;13.900;2023-06-22T01:28:20;93264.09;;;15.09;100.00
9738;BME280;4908;47.446;13.900;2023-06-22T01:30:51;93269.84;;;15.11;100.00
9738;BME280;4908;47.446;13.900;2023-06-22T01:33:29;93269.47;;;15.13;100.00
9738;BME280;4908;47.446;13.900;2023-06-22T01:35:58;93264.75;;;15.20;100.00
9738;BME280;4908;47.446;13.900;2023-06-22T01:38:26;93271.69;;;15.21;100.00
9738;BME280;4908;47.446;13.900;2023-06-22T01:40:55;93274.75;;;15.23;100.00
9738;BME280;4908;47.446;13.900;2023-06-22T01:43:24;93272.50;;;15.18;100.00
9738;BME280;4908;47.446;13.900;2023-06-22T01:45:53;93283.78;;;15.03;100.00
9738;BME280;4908;47.446;13.900;2023-06-22T01:48:21;93276.50;;;15.00;100.00
9738;BME280;4908;47.446;13.900;2023-06-22T01:50:49;93268.03;;;14.98;100.00
9738;BME280;4908;47.446;13.900;2023-06-22T01:53:16;93255.72;;;14.93;100.00
9738;BME280;4908;47.446;13.900;2023-06-22T01:55:43;93253.03;;;14.93;100.00
9738;BME280;4908;47.446;13.900;2023-06-22T01:58:09;93261.88;;;14.90;100.00
9738;BME280;4908;47.446;13.900;2023-06-22T02:00:38;93260.78;;;14.88;100.00
9738;BME280;4908;47.446;13.900;2023-06-22T02:03:11;93260.38;;;14.89;100.00
9738;BME280;4908;47.446;13.900;2023-06-22T02:05:39;93257.66;;;14.93;100.00
9738;BME280;4908;47.446;13.900;2023-06-22T02:08:11;93253.13;;;14.79;100.00
9738;BME280;4908;47.446;13.900;2023-06-22T02:10:42;93247.69;;;14.86;100.00
9738;BME280;4908;47.446;13.900;2023-06-22T02:13:11;93250.03;;;14.77;100.00
9738;BME280;4908;47.446;13.900;2023-06-22T02:15:39;93242.75;;;14.74;100.00
9738;BME280;4908;47.446;13.900;2023-06-22T02:18:08;93243.53;;;14.71;100.00
9738;BME280;4908;47.446;13.900;2023-06-22T02:20:36;93239.75;;;14.58;100.00
9738;BME280;4908;47.446;13.900;2023-06-22T02:23:03;93245.22;;;14.44;100.00
9738;BME280;4908;47.446;13.900;2023-06-22T02:25:31;93239.47;;;14.42;100.00
9738;BME280;4908;47.446;13.900;2023-06-22T02:27:58;93228.31;;;14.40;100.00
9738;BME280;4908;47.446;13.900;2023-06-22T02:30:25;93228.66;;;14.49;100.00
9738;BME280;4908;47.446;13.900;2023-06-22T02:32:52;93232.09;;;14.53;100.00
9738;BME280;4908;47.446;13.900;2023-06-22T02:35:26;93240.53;;;14.59;100.00
9738;BME280;4908;47.446;13.900;2023-06-22T02:37:56;93232.81;;;14.64;100.00
9738;BME280;4908;47.446;13.900;2023-06-22T02:40:23;93237.88;;;14.55;100.00
9738;BME280;4908;47.446;13.900;2023-06-22T02:42:50;93246.78;;;14.38;100.00
9738;BME280;4908;47.446;13.900;2023-06-22T02:45:17;93234.16;;;14.28;100.00
9738;BME280;4908;47.446;13.900;2023-06-22T02:47:44;93233.69;;;14.40;100.00
9738;BME280;4908;47.446;13.900;2023-06-22T02:50:11;93231.34;;;14.46;100.00
9738;BME280;4908;47.446;13.900;2023-06-22T02:52:39;93238.31;;;14.43;100.00
9738;BME280;4908;47.446;13.900;2023-06-22T02:55:06;93229.44;;;14.46;100.00
9738;BME280;4908;47.446;13.900;2023-06-22T02:57:33;93238.63;;;14.52;100.00
9738;BME280;4908;47.446;13.900;2023-06-22T03:00:03;93246.69;;;14.59;100.00
9738;BME280;4908;47.446;13.900;2023-06-22T03:02:39;93243.59;;;14.64;100.00
9738;BME280;4908;47.446;13.900;2023-06-22T03:05:06;93244.31;;;14.72;100.00
9738;BME280;4908;47.446;13.900;2023-06-22T03:07:35;93247.34;;;14.77;100.00
9738;BME280;4908;47.446;13.900;2023-06-22T03:10:04;93239.63;;;14.79;100.00
9738;BME280;4908;47.446;13.900;2023-06-22T03:12:31;93238.44;;;14.87;100.00
9738;BME280;4908;47.446;13.900;2023-06-22T03:14:58;93241.13;;;14.87;100.00
9738;BME280;4908;47.446;13.900;2023-06-22T03:17:25;93248.47;;;14.83;100.00
9738;BME280;4908;47.446;13.900;2023-06-22T03:19:51;93244.31;;;14.72;100.00
9738;BME280;4908;47.446;13.900;2023-06-22T03:22:18;93238.00;;;14.92;100.00
9738;BME280;4908;47.446;13.900;2023-06-22T03:24:45;93240.28;;;14.97;100.00
9738;BME280;4908;47.446;13.900;2023-06-22T03:27:13;93239.47;;;15.00;100.00
9738;BME280;4908;47.446;13.900;2023-06-22T03:29:40;93232.50;;;15.06;100.00
9738;BME280;4908;47.446;13.900;2023-06-22T03:32:07;93236.34;;;15.09;100.00
9738;BME280;4908;47.446;13.900;2023-06-22T03:34:33;93237.84;;;15.10;100.00
9738;BME280;4908;47.446;13.900;2023-06-22T03:37:02;93237.16;;;15.02;100.00
9738;BME280;4908;47.446;13.900;2023-06-22T03:39:29;93238.34;;;14.98;100.00
9738;BME280;4908;47.446;13.900;2023-06-22T03:41:56;93247.97;;;14.99;100.00
9738;BME280;4908;47.446;13.900;2023-06-22T03:44:24;93244.88;;;15.00;100.00
9738;BME280;4908;47.446;13.900;2023-06-22T03:46:51;93247.19;;;14.98;100.00
9738;BME280;4908;47.446;13.900;2023-06-22T03:49:17;93248.75;;;14.99;100.00
9738;BME280;4908;47.446;13.900;2023-06-22T03:51:44;93250.94;;;15.15;100.00
9738;BME280;4908;47.446;13.900;2023-06-22T03:54:11;93247.00;;;15.26;100.00
9738;BME280;4908;47.446;13.900;2023-06-22T03:56:38;93250.41;;;15.34;100.00
9738;BME280;4908;47.446;13.900;2023-06-22T03:59:04;93247.28;;;15.43;100.00
9738;BME280;4908;47.446;13.900;2023-06-22T04:01:32;93253.78;;;15.45;100.00
9738;BME280;4908;47.446;13.900;2023-06-22T04:04:00;93251.50;;;15.44;100.00
9738;BME280;4908;47.446;13.900;2023-06-22T04:06:26;93246.88;;;15.41;100.00
9738;BME280;4908;47.446;13.900;2023-06-22T04:08:53;93247.19;;;15.50;100.00
9738;BME280;4908;47.446;13.900;2023-06-22T04:11:20;93242.63;;;15.40;100.00
9738;BME280;4908;47.446;13.900;2023-06-22T04:13:46;93243.81;;;15.39;100.00
9738;BME280;4908;47.446;13.900;2023-06-22T04:16:14;93246.91;;;15.34;100.00
9738;BME280;4908;47.446;13.900;2023-06-22T04:18:42;93245.13;;;15.16;100.00
9738;BME280;4908;47.446;13.900;2023-06-22T04:21:10;93242.38;;;15.23;100.00
9738;BME280;4908;47.446;13.900;2023-06-22T04:23:36;93247.78;;;15.23;100.00
9738;BME280;4908;47.446;13.900;2023-06-22T04:26:03;93245.50;;;15.18;100.00
9738;BME280;4908;47.446;13.900;2023-06-22T04:28:30;93241.59;;;15.26;100.00
9738;BME280;4908;47.446;13.900;2023-06-22T04:31:00;93243.44;;;15.33;100.00
9738;BME280;4908;47.446;13.900;2023-06-22T04:33:27;93242.28;;;15.34;100.00
9738;BME280;4908;47.446;13.900;2023-06-22T04:35:57;93249.16;;;15.46;100.00
9738;BME280;4908;47.446;13.900;2023-06-22T04:38:23;93245.31;;;15.40;100.00
9738;BME280;4908;47.446;13.900;2023-06-22T04:40:50;93250.72;;;15.40;100.00
9738;BME280;4908;47.446;13.900;2023-06-22T04:43:18;93245.28;;;15.47;100.00
9738;BME280;4908;47.446;13.900;2023-06-22T04:45:45;93246.88;;;15.41;100.00
9738;BME280;4908;47.446;13.900;2023-06-22T04:48:17;93253.09;;;15.34;100.00
9738;BME280;4908;47.446;13.900;2023-06-22T04:50:44;93253.81;;;15.42;100.00
9738;BME280;4908;47.446;13.900;2023-06-22T04:53:12;93251.00;;;15.56;100.00
9738;BME280;4908;47.446;13.900;2023-06-22T04:55:39;93245.97;;;15.58;100.00
9738;BME280;4908;47.446;13.900;2023-06-22T04:58:07;93237.59;;;15.45;100.00
9738;BME280;4908;47.446;13.900;2023-06-22T05:00:34;93244.41;;;15.57;100.00
9738;BME280;4908;47.446;13.900;2023-06-22T05:03:02;93238.97;;;15.64;100.00
9738;BME280;4908;47.446;13.900;2023-06-22T05:05:29;93238.06;;;15.77;100.00
9738;BME280;4908;47.446;13.900;2023-06-22T05:07:56;93234.22;;;15.75;100.00
9738;BME280;4908;47.446;13.900;2023-06-22T05:10:27;93228.72;;;15.82;100.00
9738;BME280;4908;47.446;13.900;2023-06-22T05:12:54;93239.53;;;15.82;100.00
9738;BME280;4908;47.446;13.900;2023-06-22T05:15:20;93229.22;;;16.07;100.00
9738;BME280;4908;47.446;13.900;2023-06-22T05:17:52;93228.34;;;16.17;100.00
9738;BME280;4908;47.446;13.900;2023-06-22T05:20:19;93229.06;;;16.21;100.00
9738;BME280;4908;47.446;13.900;2023-06-22T05:22:47;93233.31;;;16.22;100.00
9738;BME280;4908;47.446;13.900;2023-06-22T05:25:14;93225.94;;;16.23;100.00
9738;BME280;4908;47.446;13.900;2023-06-22T05:27:42;93222.94;;;16.17;100.00
9738;BME280;4908;47.446;13.900;2023-06-22T05:30:10;93214.25;;;16.33;100.00
9738;BME280;4908;47.446;13.900;2023-06-22T05:32:36;93221.75;;;16.52;100.00
9738;BME280;4908;47.446;13.900;2023-06-22T05:35:04;93217.97;;;16.42;100.00
9738;BME280;4908;47.446;13.900;2023-06-22T05:37:31;93216.56;;;16.64;100.00
9738;BME280;4908;47.446;13.900;2023-06-22T05:39:57;93214.72;;;16.84;100.00
9738;BME280;4908;47.446;13.900;2023-06-22T05:42:24;93213.91;;;16.87;100.00
9738;BME280;4908;47.446;13.900;2023-06-22T05:44:53;93208.84;;;16.89;100.00
9738;BME280;4908;47.446;13.900;2023-06-22T05:47:20;93208.50;;;16.87;100.00
9738;BME280;4908;47.446;13.900;2023-06-22T05:49:48;93213.69;;;17.01;100.00
9738;BME280;4908;47.446;13.900;2023-06-22T05:52:15;93209.38;;;17.04;100.00
9738;BME280;4908;47.446;13.900;2023-06-22T05:54:41;93209.34;;;17.08;100.00
9738;BME280;4908;47.446;13.900;2023-06-22T05:57:08;93207.00;;;17.10;100.00
9738;BME280;4908;47.446;13.900;2023-06-22T05:59:35;93208.56;;;17.07;100.00
9738;BME280;4908;47.446;13.900;2023-06-22T06:02:04;93210.41;;;17.14;100.00
9738;BME280;4908;47.446;13.900;2023-06-22T06:04:30;93201.22;;;17.08;100.00
9738;BME280;4908;47.446;13.900;2023-06-22T06:06:57;93206.28;;;17.06;100.00
9738;BME280;4908;47.446;13.900;2023-06-22T06:09:24;93204.34;;;17.29;100.00
9738;BME280;4908;47.446;13.900;2023-06-22T06:11:50;93206.50;;;17.38;100.00
9738;BME280;4908;47.446;13.900;2023-06-22T06:14:17;93203.13;;;17.57;100.00
9738;BME280;4908;47.446;13.900;2023-06-22T06:16:45;93212.88;;;17.74;100.00
9738;BME280;4908;47.446;13.900;2023-06-22T06:19:13;93206.13;;;17.82;100.00
9738;BME280;4908;47.446;13.900;2023-06-22T06:21:40;93198.63;;;17.89;100.00
9738;BME280;4908;47.446;13.900;2023-06-22T06:24:07;93200.72;;;18.02;100.00
9738;BME280;4908;47.446;13.900;2023-06-22T06:26:33;93192.81;;;17.91;100.00
9738;BME280;4908;47.446;13.900;2023-06-22T06:29:01;93194.94;;;17.80;100.00
9738;BME280;4908;47.446;13.900;2023-06-22T06:31:29;93194.19;;;17.79;100.00
9738;BME280;4908;47.446;13.900;2023-06-22T06:33:55;93204.00;;;17.93;100.00
9738;BME280;4908;47.446;13.900;2023-06-22T06:36:24;93194.19;;;18.19;100.00
9738;BME280;4908;47.446;13.900;2023-06-22T06:38:50;93182.03;;;18.46;100.00
9738;BME280;4908;47.446;13.900;2023-06-22T06:41:18;93182.78;;;18.47;100.00
9738;BME280;4908;47.446;13.900;2023-06-22T06:43:46;93186.13;;;18.35;100.00
9738;BME280;4908;47.446;13.900;2023-06-22T06:46:13;93178.56;;;18.26;100.00
9738;BME280;4908;47.446;13.900;2023-06-22T06:48:39;93177.72;;;18.29;100.00
9738;BME280;4908;47.446;13.900;2023-06-22T06:51:06;93181.63;;;18.28;100.00
9738;BME280;4908;47.446;13.900;2023-06-22T06:53:36;93180.38;;;18.13;100.00
9738;BME280;4908;47.446;13.900;2023-06-22T06:56:03;93172.66;;;18.12;100.00
9738;BME280;4908;47.446;13.900;2023-06-22T06:58:30;93174.50;;;18.34;100.00
9738;BME280;4908;47.446;13.900;2023-06-22T07:00:57;93161.59;;;18.22;100.00
9738;BME280;4908;47.446;13.900;2023-06-22T07:03:24;93161.38;;;18.33;100.00
9738;BME280;4908;47.446;13.900;2023-06-22T07:05:51;93156.19;;;18.22;100.00
9738;BME280;4908;47.446;13.900;2023-06-22T07:08:18;93155.84;;;18.36;100.00
9738;BME280;4908;47.446;13.900;2023-06-22T07:10:46;93157.53;;;18.50;100.00
9738;BME280;4908;47.446;13.900;2023-06-22T07:13:13;93161.06;;;18.83;100.00
9738;BME280;4908;47.446;13.900;2023-06-22T07:15:39;93163.44;;;19.13;100.00
9738;BME280;4908;47.446;13.900;2023-06-22T07:18:06;93167.66;;;19.30;100.00
9738;BME280;4908;47.446;13.900;2023-06-22T07:20:33;93158.34;;;19.31;100.00
9738;BME280;4908;47.446;13.900;2023-06-22T07:23:00;93146.13;;;19.23;100.00
9738;BME280;4908;47.446;13.900;2023-06-22T07:25:27;93146.13;;;19.23;100.00
9738;BME280;4908;47.446;13.900;2023-06-22T07:27:59;93139.84;;;19.26;100.00
9738;BME280;4908;47.446;13.900;2023-06-22T07:30:27;93130.94;;;19.41;100.00
9738;BME280;4908;47.446;13.900;2023-06-22T07:32:54;93137.03;;;19.45;100.00
9738;BME280;4908;47.446;13.900;2023-06-22T07:35:20;93138.38;;;19.53;100.00
9738;BME280;4908;47.446;13.900;2023-06-22T07:37:47;93135.66;;;19.53;100.00
9738;BME280;4908;47.446;13.900;2023-06-22T07:40:14;93135.16;;;19.26;100.00
9738;BME280;4908;47.446;13.900;2023-06-22T07:42:41;93138.31;;;19.25;100.00
9738;BME280;4908;47.446;13.900;2023-06-22T07:45:09;93135.13;;;19.14;100.00
9738;BME280;4908;47.446;13.900;2023-06-22T07:47:36;93132.56;;;19.23;100.00
9738;BME280;4908;47.446;13.900;2023-06-22T07:50:04;93133.91;;;19.15;100.00
9738;BME280;4908;47.446;13.900;2023-06-22T07:52:31;93129.34;;;19.12;100.00
9738;BME280;4908;47.446;13.900;2023-06-22T07:54:58;93134.41;;;19.26;100.00
9738;BME280;4908;47.446;13.900;2023-06-22T07:57:25;93129.66;;;19.30;100.00
9738;BME280;4908;47.446;13.900;2023-06-22T07:59:58;93127.59;;;19.50;100.00
9738;BME280;4908;47.446;13.900;2023-06-22T08:02:27;93123.16;;;19.72;100.00
9738;BME280;4908;47.446;13.900;2023-06-22T08:04:53;93120.78;;;19.87;100.00
9738;BME280;4908;47.446;13.900;2023-06-22T08:07:20;93123.63;;;19.96;100.00
9738;BME280;4908;47.446;13.900;2023-06-22T08:09:48;93115.94;;;20.07;100.00
9738;BME280;4908;47.446;13.900;2023-06-22T08:12:15;93118.22;;;20.08;100.00
9738;BME280;4908;47.446;13.900;2023-06-22T08:14:42;93111.06;;;20.14;100.00
9738;BME280;4908;47.446;13.900;2023-06-22T08:17:09;93111.25;;;20.36;100.00
9738;BME280;4908;47.446;13.900;2023-06-22T08:19:39;93107.84;;;20.44;100.00
9738;BME280;4908;47.446;13.900;2023-06-22T08:22:06;93109.59;;;20.64;100.00
9738;BME280;4908;47.446;13.900;2023-06-22T08:24:33;93093.91;;;20.68;100.00
9738;BME280;4908;47.446;13.900;2023-06-22T08:26:59;93102.84;;;20.81;100.00
9738;BME280;4908;47.446;13.900;2023-06-22T08:29:26;93101.13;;;20.87;100.00
9738;BME280;4908;47.446;13.900;2023-06-22T08:31:53;93099.66;;;20.95;100.00
9738;BME280;4908;47.446;13.900;2023-06-22T08:34:19;93098.25;;;21.03;100.00
9738;BME280;4908;47.446;13.900;2023-06-22T08:36:48;93088.19;;;21.25;100.00
9738;BME280;4908;47.446;13.900;2023-06-22T08:39:18;93099.28;;;21.43;100.00
9738;BME280;4908;47.446;13.900;2023-06-22T08:41:45;93096.44;;;21.68;100.00
9738;BME280;4908;47.446;13.900;2023-06-22T08:44:12;93098.22;;;21.62;100.00
9738;BME280;4908;47.446;13.900;2023-06-22T08:46:39;93091.41;;;21.67;100.00
9738;BME280;4908;47.446;13.900;2023-06-22T08:49:06;93084.63;;;21.84;100.00
9738;BME280;4908;47.446;13.900;2023-06-22T08:51:33;93088.41;;;22.08;100.00
9738;BME280;4908;47.446;13.900;2023-06-22T08:54:01;93080.81;;;22.34;100.00
9738;BME280;4908;47.446;13.900;2023-06-22T08:56:28;93080.72;;;22.46;100.00
9738;BME280;4908;47.446;13.900;2023-06-22T08:58:55;93075.44;;;22.52;100.00
9738;BME280;4908;47.446;13.900;2023-06-22T09:01:21;93074.59;;;22.64;100.00
9738;BME280;4908;47.446;13.900;2023-06-22T09:03:48;93071.31;;;22.78;100.00
9738;BME280;4908;47.446;13.900;2023-06-22T09:06:19;93068.91;;;22.89;100.00
9738;BME280;4908;47.446;13.900;2023-06-22T09:08:46;93049.22;;;22.94;100.00
9738;BME280;4908;47.446;13.900;2023-06-22T09:11:15;93053.78;;;23.06;100.00
9738;BME280;4908;47.446;13.900;2023-06-22T09:13:41;93056.06;;;23.16;100.00
9738;BME280;4908;47.446;13.900;2023-06-22T09:16:08;93046.56;;;23.48;100.00
9738;BME280;4908;47.446;13.900;2023-06-22T09:18:35;93047.59;;;23.69;100.00
9738;BME280;4908;47.446;13.900;2023-06-22T09:21:02;93056.72;;;23.84;100.00
9738;BME280;4908;47.446;13.900;2023-06-22T09:23:29;93048.03;;;23.94;100.00
9738;BME280;4908;47.446;13.900;2023-06-22T09:25:56;93053.22;;;24.01;100.00
9738;BME280;4908;47.446;13.900;2023-06-22T09:28:24;93046.19;;;24.19;100.00
9738;BME280;4908;47.446;13.900;2023-06-22T09:30:51;93047.06;;;24.34;100.00
9738;BME280;4908;47.446;13.900;2023-06-22T09:33:24;93045.22;;;24.40;100.00
9738;BME280;4908;47.446;13.900;2023-06-22T09:35:51;93047.84;;;24.34;100.00
9738;BME280;4908;47.446;13.900;2023-06-22T09:38:18;93039.75;;;24.40;100.00
9738;BME280;4908;47.446;13.900;2023-06-22T09:40:44;93028.38;;;24.65;100.00
9738;BME280;4908;47.446;13.900;2023-06-22T09:43:11;93025.28;;;24.81;100.00
9738;BME280;4908;47.446;13.900;2023-06-22T09:45:39;93033.00;;;25.15;100.00
9738;BME280;4908;47.446;13.900;2023-06-22T09:48:06;93028.69;;;25.23;100.00
9738;BME280;4908;47.446;13.900;2023-06-22T09:50:35;93018.47;;;25.24;100.00
9738;BME280;4908;47.446;13.900;2023-06-22T09:53:02;93015.16;;;25.43;100.00
9738;BME280;4908;47.446;13.900;2023-06-22T09:55:28;93014.78;;;25.50;100.00
9738;BME280;4908;47.446;13.900;2023-06-22T09:57:55;93016.13;;;25.55;100.00
9738;BME280;4908;47.446;13.900;2023-06-22T10:00:22;93014.22;;;25.46;100.00
9738;BME280;4908;47.446;13.900;2023-06-22T10:02:50;93013.41;;;25.55;100.00
9738;BME280;4908;47.446;13.900;2023-06-22T10:05:17;93003.28;;;25.90;100.00
9738;BME280;4908;47.446;13.900;2023-06-22T10:07:44;93005.78;;;26.03;100.00
9738;BME280;4908;47.446;13.900;2023-06-22T10:10:11;93004.09;;;26.20;100.00
9738;BME280;4908;47.446;13.900;2023-06-22T10:12:41;93013.75;;;26.44;100.00
9738;BME280;4908;47.446;13.900;2023-06-22T10:15:10;93009.47;;;26.58;100.00
9738;BME280;4908;47.446;13.900;2023-06-22T10:17:36;93006.31;;;26.65;100.00
9738;BME280;4908;47.446;13.900;2023-06-22T10:20:06;92993.75;;;26.44;100.00
9738;BME280;4908;47.446;13.900;2023-06-22T10:22:37;92999.28;;;26.64;100.00
9738;BME280;4908;47.446;13.900;2023-06-22T10:25:05;93008.78;;;26.63;100.00
9738;BME280;4908;47.446;13.900;2023-06-22T10:27:32;93001.69;;;26.91;100.00
9738;BME280;4908;47.446;13.900;2023-06-22T10:29:59;93000.34;;;27.01;100.00
9738;BME280;4908;47.446;13.900;2023-06-22T10:32:25;92999.53;;;27.15;100.00
9738;BME280;4908;47.446;13.900;2023-06-22T10:34:53;92999.81;;;27.17;100.00
9738;BME280;4908;47.446;13.900;2023-06-22T10:37:22;93001.19;;;27.47;100.00
9738;BME280;4908;47.446;13.900;2023-06-22T10:39:49;92998.31;;;27.36;100.00
9738;BME280;4908;47.446;13.900;2023-06-22T10:42:16;92999.97;;;27.48;100.00
9738;BME280;4908;47.446;13.900;2023-06-22T10:44:42;92992.56;;;27.80;100.00
9738;BME280;4908;47.446;13.900;2023-06-22T10:47:10;92989.56;;;28.04;100.00
9738;BME280;4908;47.446;13.900;2023-06-22T10:49:37;92991.28;;;28.27;100.00
9738;BME280;4908;47.446;13.900;2023-06-22T10:52:05;92993.34;;;28.38;100.00
9738;BME280;4908;47.446;13.900;2023-06-22T10:54:34;92984.97;;;28.52;100.00
9738;BME280;4908;47.446;13.900;2023-06-22T10:57:01;92986.81;;;28.66;100.00
9738;BME280;4908;47.446;13.900;2023-06-22T10:59:28;92986.19;;;28.82;98.34
9738;BME280;4908;47.446;13.900;2023-06-22T11:01:56;92982.78;;;28.98;100.00
9738;BME280;4908;47.446;13.900;2023-06-22T11:04:23;92979.66;;;29.16;100.00
9738;BME280;4908;47.446;13.900;2023-06-22T11:06:50;92984.44;;;29.22;95.26
9738;BME280;4908;47.446;13.900;2023-06-22T11:09:17;92979.97;;;29.30;100.00
9738;BME280;4908;47.446;13.900;2023-06-22T11:11:49;92973.41;;;29.22;98.42
9738;BME280;4908;47.446;13.900;2023-06-22T11:14:16;92973.97;;;29.37;100.00
9738;BME280;4908;47.446;13.900;2023-06-22T11:16:42;92966.41;;;29.32;100.00
9738;BME280;4908;47.446;13.900;2023-06-22T11:19:09;92967.88;;;29.22;94.44
9738;BME280;4908;47.446;13.900;2023-06-22T11:21:36;92966.97;;;29.41;98.71
9738;BME280;4908;47.446;13.900;2023-06-22T11:24:03;92974.25;;;29.50;96.63
9738;BME280;4908;47.446;13.900;2023-06-22T11:26:30;92963.97;;;29.56;97.62
9738;BME280;4908;47.446;13.900;2023-06-22T11:28:58;92957.47;;;29.59;100.00
9738;BME280;4908;47.446;13.900;2023-06-22T11:31:25;92948.03;;;29.82;100.00
9738;BME280;4908;47.446;13.900;2023-06-22T11:33:52;92935.50;;;30.08;100.00
9738;BME280;4908;47.446;13.900;2023-06-22T11:36:20;92943.31;;;30.32;100.00
9738;BME280;4908;47.446;13.900;2023-06-22T11:38:47;92928.94;;;30.72;95.23
9738;BME280;4908;47.446;13.900;2023-06-22T11:41:13;92920.41;;;30.26;90.34
9738;BME280;4908;47.446;13.900;2023-06-22T11:43:40;92918.66;;;30.12;95.20
9738;BME280;4908;47.446;13.900;2023-06-22T11:46:08;92921.19;;;30.38;96.00
9738;BME280;4908;47.446;13.900;2023-06-22T11:48:36;92909.34;;;30.59;100.00
9738;BME280;4908;47.446;13.900;2023-06-22T11:51:03;92902.81;;;30.68;98.62
9738;BME280;4908;47.446;13.900;2023-06-22T11:53:31;92908.84;;;30.66;94.00
9738;BME280;4908;47.446;13.900;2023-06-22T11:55:58;92909.56;;;30.78;90.57
9738;BME280;4908;47.446;13.900;2023-06-22T11:58:25;92901.59;;;30.52;94.04
9738;BME280;4908;47.446;13.900;2023-06-22T12:00:52;92899.78;;;30.77;94.22
9738;BME280;4908;47.446;13.900;2023-06-22T12:03:20;92892.25;;;30.66;91.47
9738;BME280;4908;47.446;13.900;2023-06-22T12:05:47;92891.19;;;30.91;86.95
9738;BME280;4908;47.446;13.900;2023-06-22T12:08:14;92894.22;;;30.82;81.86
9738;BME280;4908;47.446;13.900;2023-06-22T12:10:41;92884.41;;;30.92;84.92
9738;BME280;4908;47.446;13.900;2023-06-22T12:13:08;92881.31;;;31.13;86.40
9738;BME280;4908;47.446;13.900;2023-06-22T12:15:34;92884.06;;;31.18;87.68
9738;BME280;4908;47.446;13.900;2023-06-22T12:18:01;92884.72;;;31.35;89.27
9738;BME280;4908;47.446;13.900;2023-06-22T12:20:29;92875.41;;;31.44;87.00
9738;BME280;4908;47.446;13.900;2023-06-22T12:22:57;92873.69;;;31.76;83.39
9738;BME280;4908;47.446;13.900;2023-06-22T12:25:24;92881.16;;;31.92;76.35
9738;BME280;4908;47.446;13.900;2023-06-22T12:27:50;92874.88;;;32.21;73.91
9738;BME280;4908;47.446;13.900;2023-06-22T12:30:17;92868.66;;;32.39;72.66
9738;BME280;4908;47.446;13.900;2023-06-22T12:32:44;92856.84;;;32.39;74.33
9738;BME280;4908;47.446;13.900;2023-06-22T12:35:11;92858.69;;;32.55;81.31
9738;BME280;4908;47.446;13.900;2023-06-22T12:37:41;92852.88;;;32.58;72.62
9738;BME280;4908;47.446;13.900;2023-06-22T12:40:09;92850.09;;;32.83;77.48
9738;BME280;4908;47.446;13.900;2023-06-22T12:42:36;92842.09;;;32.98;80.47
9738;BME280;4908;47.446;13.900;2023-06-22T12:45:03;92834.34;;;33.15;80.66
9738;BME280;4908;47.446;13.900;2023-06-22T12:47:30;92838.91;;;33.31;71.49
9738;BME280;4908;47.446;13.900;2023-06-22T12:49:57;92843.97;;;33.51;77.94
9738;BME280;4908;47.446;13.900;2023-06-22T12:52:24;92838.16;;;33.12;61.70
9738;BME280;4908;47.446;13.900;2023-06-22T12:54:52;92837.56;;;32.22;78.41
9738;BME280;4908;47.446;13.900;2023-06-22T12:57:19;92833.56;;;32.96;79.35
9738;BME280;4908;47.446;13.900;2023-06-22T12:59:46;92830.50;;;33.18;74.38
9738;BME280;4908;47.446;13.900;2023-06-22T13:02:13;92821.94;;;33.72;79.54
9738;BME280;4908;47.446;13.900;2023-06-22T13:04:40;92828.88;;;34.15;75.66